sensor_id;sensor_type;location;lat;lon;timestamp;pressure;altitude;pressure_sealevel;temperature;humidity
41624;BME280;27319;50.306;18.926;2023-10-13T00:00:10;98221.47;;;14.75;100.00
41624;BME280;27319;50.306;18.926;2023-10-13T00:04:29;98219.94;;;14.87;100.00
41624;BME280;27319;50.306;18.926;2023-10-13T00:08:30;98218.91;;;14.67;100.00
41624;BME280;27319;50.306;18.926;2023-10-13T00:12:30;98210.03;;;14.52;100.00
41624;BME280;27319;50.306;18.926;2023-10-13T00:16:31;98195.00;;;14.64;100.00
41624;BME280;27319;50.306;18.926;2023-10-13T00:20:43;98194.31;;;14.55;100.00
41624;BME280;27319;50.306;18.926;2023-10-13T00:24:44;98192.16;;;14.51;100.00
41624;BME280;27319;50.306;18.926;2023-10-13T00:28:45;98188.50;;;14.37;100.00
41624;BME280;27319;50.306;18.926;2023-10-13T00:32:28;98191.09;;;14.45;100.00
41624;BME280;27319;50.306;18.926;2023-10-13T00:36:29;98192.94;;;14.45;100.00
41624;BME280;27319;50.306;18.926;2023-10-13T00:40:29;98185.75;;;14.31;100.00
41624;BME280;27319;50.306;18.926;2023-10-13T00:44:33;98180.56;;;14.15;100.00
41624;BME280;27319;50.306;18.926;2023-10-13T00:48:36;98182.34;;;14.22;100.00
41624;BME280;27319;50.306;18.926;2023-10-13T00:52:34;98188.69;;;14.57;100.00
41624;BME280;27319;50.306;18.926;2023-10-13T00:56:34;98189.63;;;14.43;100.00
41624;BME280;27319;50.306;18.926;2023-10-13T01:00:38;98180.34;;;14.31;100.00
41624;BME280;27319;50.306;18.926;2023-10-13T01:04:38;98186.47;;;14.39;100.00
41624;BME280;27319;50.306;18.926;2023-10-13T01:08:39;98183.16;;;14.23;100.00
41624;BME280;27319;50.306;18.926;2023-10-13T01:12:52;98185.22;;;14.21;100.00
41624;BME280;27319;50.306;18.926;2023-10-13T01:16:52;98185.53;;;14.11;100.00
41624;BME280;27319;50.306;18.926;2023-10-13T01:20:54;98182.56;;;14.06;100.00
41624;BME280;27319;50.306;18.926;2023-10-13T01:24:54;98170.69;;;14.01;100.00
41624;BME280;27319;50.306;18.926;2023-10-13T01:28:57;98174.59;;;13.98;100.00
41624;BME280;27319;50.306;18.926;2023-10-13T01:32:58;98171.88;;;13.98;100.00
41624;BME280;27319;50.306;18.926;2023-10-13T01:37:02;98169.88;;;13.86;100.00
41624;BME280;27319;50.306;18.926;2023-10-13T01:41:05;98159.97;;;13.93;100.00
41624;BME280;27319;50.306;18.926;2023-10-13T01:45:06;98156.19;;;13.87;100.00
41624;BME280;27319;50.306;18.926;2023-10-13T01:49:07;98154.97;;;13.90;100.00
41624;BME280;27319;50.306;18.926;2023-10-13T01:53:08;98160.84;;;13.93;100.00
41624;BME280;27319;50.306;18.926;2023-10-13T01:57:09;98159.63;;;13.96;100.00
41624;BME280;27319;50.306;18.926;2023-10-13T02:01:09;98169.19;;;13.98;100.00
41624;BME280;27319;50.306;18.926;2023-10-13T02:05:10;98166.03;;;13.95;100.00
41624;BME280;27319;50.306;18.926;2023-10-13T02:09:10;98167.72;;;13.96;100.00
41624;BME280;27319;50.306;18.926;2023-10-13T02:13:12;98174.91;;;13.89;100.00
41624;BME280;27319;50.306;18.926;2023-10-13T02:17:12;98178.69;;;13.94;100.00
41624;BME280;27319;50.306;18.926;2023-10-13T02:21:12;98180.94;;;13.91;100.00
41624;BME280;27319;50.306;18.926;2023-10-13T02:25:13;98184.31;;;13.78;100.00
41624;BME280;27319;50.306;18.926;2023-10-13T02:29:20;98173.81;;;13.69;100.00
41624;BME280;27319;50.306;18.926;2023-10-13T02:33:20;98170.66;;;13.65;100.00
41624;BME280;27319;50.306;18.926;2023-10-13T02:37:21;98176.44;;;13.48;100.00
41624;BME280;27319;50.306;18.926;2023-10-13T02:41:22;98180.09;;;13.55;100.00
41624;BME280;27319;50.306;18.926;2023-10-13T02:45:23;98164.00;;;13.47;100.00
41624;BME280;27319;50.306;18.926;2023-10-13T02:49:24;98167.72;;;13.46;100.00
41624;BME280;27319;50.306;18.926;2023-10-13T02:53:24;98178.16;;;13.49;100.00
41624;BME280;27319;50.306;18.926;2023-10-13T02:57:05;98171.44;;;13.59;100.00
41624;BME280;27319;50.306;18.926;2023-10-13T03:00:07;98176.19;;;13.57;100.00
41624;BME280;27319;50.306;18.926;2023-10-13T03:03:15;98166.06;;;13.45;100.00
41624;BME280;27319;50.306;18.926;2023-10-13T03:07:16;98170.53;;;13.38;100.00
41624;BME280;27319;50.306;18.926;2023-10-13T03:11:17;98171.53;;;13.37;100.00
41624;BME280;27319;50.306;18.926;2023-10-13T03:15:17;98179.53;;;13.45;100.00
41624;BME280;27319;50.306;18.926;2023-10-13T03:19:18;98178.50;;;13.46;100.00
41624;BME280;27319;50.306;18.926;2023-10-13T03:23:19;98177.13;;;13.50;100.00
41624;BME280;27319;50.306;18.926;2023-10-13T03:27:20;98172.66;;;13.42;100.00
41624;BME280;27319;50.306;18.926;2023-10-13T03:31:20;98173.75;;;13.48;100.00
41624;BME280;27319;50.306;18.926;2023-10-13T03:35:21;98169.09;;;13.56;100.00
41624;BME280;27319;50.306;18.926;2023-10-13T03:39:24;98167.34;;;13.49;100.00
41624;BME280;27319;50.306;18.926;2023-10-13T03:43:25;98176.53;;;13.54;100.00
41624;BME280;27319;50.306;18.926;2023-10-13T03:47:26;98169.53;;;13.60;100.00
41624;BME280;27319;50.306;18.926;2023-10-13T03:51:26;98171.88;;;13.63;100.00
41624;BME280;27319;50.306;18.926;2023-10-13T03:55:27;98177.19;;;13.56;100.00
41624;BME280;27319;50.306;18.926;2023-10-13T03:59:27;98171.53;;;13.51;100.00
41624;BME280;27319;50.306;18.926;2023-10-13T04:03:28;98179.50;;;13.59;100.00
41624;BME280;27319;50.306;18.926;2023-10-13T04:07:38;98164.16;;;13.60;100.00
41624;BME280;27319;50.306;18.926;2023-10-13T04:11:37;98176.41;;;13.77;100.00
41624;BME280;27319;50.306;18.926;2023-10-13T04:15:23;98170.50;;;13.67;100.00
41624;BME280;27319;50.306;18.926;2023-10-13T04:19:24;98172.50;;;13.65;100.00
41624;BME280;27319;50.306;18.926;2023-10-13T04:23:23;98168.81;;;13.66;100.00
41624;BME280;27319;50.306;18.926;2023-10-13T04:27:24;98173.47;;;13.72;100.00
41624;BME280;27319;50.306;18.926;2023-10-13T04:31:24;98176.16;;;13.72;100.00
41624;BME280;27319;50.306;18.926;2023-10-13T04:35:28;98176.94;;;13.87;100.00
41624;BME280;27319;50.306;18.926;2023-10-13T04:39:28;98173.97;;;13.82;100.00
41624;BME280;27319;50.306;18.926;2023-10-13T04:43:29;98172.00;;;13.90;100.00
41624;BME280;27319;50.306;18.926;2023-10-13T04:47:38;98175.41;;;13.99;100.00
41624;BME280;27319;50.306;18.926;2023-10-13T04:51:38;98174.59;;;13.98;100.00
41624;BME280;27319;50.306;18.926;2023-10-13T04:55:42;98181.66;;;13.99;100.00
41624;BME280;27319;50.306;18.926;2023-10-13T04:59:22;98180.44;;;14.02;100.00
41624;BME280;27319;50.306;18.926;2023-10-13T05:03:23;98194.97;;;14.01;100.00
41624;BME280;27319;50.306;18.926;2023-10-13T05:07:23;98195.97;;;14.00;100.00
41624;BME280;27319;50.306;18.926;2023-10-13T05:11:36;98192.13;;;14.09;100.00
41624;BME280;27319;50.306;18.926;2023-10-13T05:15:42;98199.00;;;14.11;100.00
41624;BME280;27319;50.306;18.926;2023-10-13T05:19:14;98213.53;;;14.10;100.00
41624;BME280;27319;50.306;18.926;2023-10-13T05:23:13;98212.97;;;14.15;100.00
41624;BME280;27319;50.306;18.926;2023-10-13T05:27:13;98213.81;;;14.15;100.00
41624;BME280;27319;50.306;18.926;2023-10-13T05:30:52;98223.22;;;14.19;100.00
41624;BME280;27319;50.306;18.926;2023-10-13T05:34:32;98215.78;;;14.21;100.00
41624;BME280;27319;50.306;18.926;2023-10-13T05:37:51;98212.22;;;14.21;100.00
41624;BME280;27319;50.306;18.926;2023-10-13T05:41:50;98218.47;;;14.21;100.00
41624;BME280;27319;50.306;18.926;2023-10-13T05:45:50;98219.19;;;14.30;100.00
41624;BME280;27319;50.306;18.926;2023-10-13T09:17:44;98260.78;;;17.97;94.91
41624;BME280;27319;50.306;18.926;2023-10-13T09:21:12;98268.72;;;18.05;94.79
41624;BME280;27319;50.306;18.926;2023-10-13T09:24:58;98264.75;;;18.01;94.43
41624;BME280;27319;50.306;18.926;2023-10-13T09:28:59;98263.69;;;18.02;94.88
41624;BME280;27319;50.306;18.926;2023-10-13T09:33:03;98263.22;;;18.24;95.10
41624;BME280;27319;50.306;18.926;2023-10-13T09:37:09;98260.69;;;18.29;92.42
41624;BME280;27319;50.306;18.926;2023-10-13T09:41:10;98261.00;;;18.52;92.86
41624;BME280;27319;50.306;18.926;2023-10-13T09:45:11;98256.03;;;18.43;93.27
41624;BME280;27319;50.306;18.926;2023-10-13T09:49:18;98263.94;;;18.51;91.96
41624;BME280;27319;50.306;18.926;2023-10-13T09:53:27;98262.47;;;18.86;88.08
41624;BME280;27319;50.306;18.926;2023-10-13T09:57:32;98261.59;;;18.92;90.35
41624;BME280;27319;50.306;18.926;2023-10-13T10:01:31;98256.19;;;18.85;88.94
41624;BME280;27319;50.306;18.926;2023-10-13T10:05:32;98249.88;;;18.91;87.17
41624;BME280;27319;50.306;18.926;2023-10-13T10:09:33;98244.50;;;18.85;86.55
41624;BME280;27319;50.306;18.926;2023-10-13T10:13:44;98242.81;;;19.08;85.93
41624;BME280;27319;50.306;18.926;2023-10-13T10:17:43;98241.69;;;19.47;83.69
41624;BME280;27319;50.306;18.926;2023-10-13T10:21:43;98237.56;;;19.80;81.22
41624;BME280;27319;50.306;18.926;2023-10-13T10:25:50;98236.28;;;19.83;80.87
41624;BME280;27319;50.306;18.926;2023-10-13T10:29:53;98221.75;;;19.89;81.15
41624;BME280;27319;50.306;18.926;2023-10-13T10:33:54;98215.56;;;20.18;80.65
41624;BME280;27319;50.306;18.926;2023-10-13T10:37:54;98216.31;;;20.25;79.54
41624;BME280;27319;50.306;18.926;2023-10-13T10:42:08;98216.91;;;20.86;78.25
41624;BME280;27319;50.306;18.926;2023-10-13T10:49:54;98201.69;;;20.49;76.41
41624;BME280;27319;50.306;18.926;2023-10-13T10:54:02;98214.63;;;20.24;76.99
41624;BME280;27319;50.306;18.926;2023-10-13T10:58:02;98208.81;;;20.02;78.59
41624;BME280;27319;50.306;18.926;2023-10-13T11:02:11;98206.13;;;20.32;76.85
41624;BME280;27319;50.306;18.926;2023-10-13T11:06:12;98201.91;;;20.65;75.26
41624;BME280;27319;50.306;18.926;2023-10-13T11:10:13;98214.72;;;21.29;76.41
41624;BME280;27319;50.306;18.926;2023-10-13T11:14:20;98206.72;;;20.93;76.15
41624;BME280;27319;50.306;18.926;2023-10-13T11:18:28;98202.19;;;20.57;75.83
41624;BME280;27319;50.306;18.926;2023-10-13T11:25:57;98188.13;;;21.13;74.48
41624;BME280;27319;50.306;18.926;2023-10-13T11:29:57;98188.13;;;21.13;75.77
41624;BME280;27319;50.306;18.926;2023-10-13T11:34:00;98192.63;;;21.19;75.14
41624;BME280;27319;50.306;18.926;2023-10-13T11:38:01;98192.75;;;21.24;74.15
41624;BME280;27319;50.306;18.926;2023-10-13T11:42:08;98181.38;;;21.38;73.03
41624;BME280;27319;50.306;18.926;2023-10-13T11:46:08;98174.13;;;21.55;73.07
41624;BME280;27319;50.306;18.926;2023-10-13T11:49:58;98179.56;;;21.67;72.74
41624;BME280;27319;50.306;18.926;2023-10-13T11:54:01;98169.09;;;21.98;72.52
41624;BME280;27319;50.306;18.926;2023-10-13T11:58:02;98170.50;;;22.01;71.97
41624;BME280;27319;50.306;18.926;2023-10-13T12:02:06;98174.41;;;22.33;71.31
41624;BME280;27319;50.306;18.926;2023-10-13T12:05:46;98176.09;;;22.06;71.66
41624;BME280;27319;50.306;18.926;2023-10-13T12:09:46;98158.44;;;22.41;70.14
41624;BME280;27319;50.306;18.926;2023-10-13T12:13:47;98175.16;;;22.84;68.82
41624;BME280;27319;50.306;18.926;2023-10-13T12:18:03;98163.06;;;21.85;71.99
41624;BME280;27319;50.306;18.926;2023-10-13T12:22:03;98155.22;;;21.65;73.19
41624;BME280;27319;50.306;18.926;2023-10-13T12:26:10;98157.41;;;21.40;75.42
41624;BME280;27319;50.306;18.926;2023-10-13T12:30:13;98150.41;;;21.33;75.97
41624;BME280;27319;50.306;18.926;2023-10-13T12:34:17;98147.06;;;21.54;75.53
41624;BME280;27319;50.306;18.926;2023-10-13T12:38:16;98149.06;;;21.70;75.61
41624;BME280;27319;50.306;18.926;2023-10-13T12:42:09;98152.19;;;22.01;76.92
41624;BME280;27319;50.306;18.926;2023-10-13T12:46:08;98140.09;;;22.25;73.49
41624;BME280;27319;50.306;18.926;2023-10-13T12:50:07;98144.84;;;22.58;71.56
41624;BME280;27319;50.306;18.926;2023-10-13T12:54:08;98137.00;;;21.94;74.42
41624;BME280;27319;50.306;18.926;2023-10-13T12:58:09;98139.84;;;21.99;74.84
41624;BME280;27319;50.306;18.926;2023-10-13T13:02:10;98133.28;;;21.72;74.31
41624;BME280;27319;50.306;18.926;2023-10-13T13:06:15;98125.47;;;22.03;72.52
41624;BME280;27319;50.306;18.926;2023-10-13T13:10:11;98123.53;;;21.53;75.32
41624;BME280;27319;50.306;18.926;2023-10-13T13:14:18;98132.97;;;21.22;76.25
41624;BME280;27319;50.306;18.926;2023-10-13T13:18:19;98120.47;;;21.38;75.91
41624;BME280;27319;50.306;18.926;2023-10-13T13:22:19;98104.22;;;21.31;76.37
41624;BME280;27319;50.306;18.926;2023-10-13T13:26:21;98108.25;;;21.29;76.83
41624;BME280;27319;50.306;18.926;2023-10-13T13:30:21;98098.06;;;21.24;77.24
41624;BME280;27319;50.306;18.926;2023-10-13T13:34:22;98092.44;;;21.54;77.12
41624;BME280;27319;50.306;18.926;2023-10-13T13:38:23;98095.50;;;21.69;75.82
41624;BME280;27319;50.306;18.926;2023-10-13T13:42:24;98093.56;;;22.37;74.97
41624;BME280;27319;50.306;18.926;2023-10-13T13:46:25;98102.06;;;22.52;72.50
41624;BME280;27319;50.306;18.926;2023-10-13T13:50:26;98109.69;;;22.50;72.92
41624;BME280;27319;50.306;18.926;2023-10-13T13:54:26;98101.84;;;22.42;72.16
41624;BME280;27319;50.306;18.926;2023-10-13T13:58:27;98093.47;;;22.04;73.36
41624;BME280;27319;50.306;18.926;2023-10-13T14:02:27;98091.44;;;21.83;74.76
41624;BME280;27319;50.306;18.926;2023-10-13T14:06:09;98093.13;;;21.61;74.68
41624;BME280;27319;50.306;18.926;2023-10-13T14:09:37;98092.63;;;21.64;76.49
41624;BME280;27319;50.306;18.926;2023-10-13T14:13:38;98086.25;;;21.47;76.66
41624;BME280;27319;50.306;18.926;2023-10-13T14:17:38;98070.13;;;21.34;77.89
41624;BME280;27319;50.306;18.926;2023-10-13T14:21:25;98078.47;;;21.16;77.21
41624;BME280;27319;50.306;18.926;2023-10-13T14:25:17;98086.91;;;21.14;77.49
41624;BME280;27319;50.306;18.926;2023-10-13T14:29:18;98080.34;;;20.81;78.25
41624;BME280;27319;50.306;18.926;2023-10-13T14:33:21;98071.44;;;20.62;78.93
41624;BME280;27319;50.306;18.926;2023-10-13T14:37:22;98076.97;;;20.56;80.00
41624;BME280;27319;50.306;18.926;2023-10-13T14:41:23;98068.44;;;20.41;80.53
41624;BME280;27319;50.306;18.926;2023-10-13T14:45:24;98066.03;;;20.33;80.94
41624;BME280;27319;50.306;18.926;2023-10-13T14:49:25;98066.47;;;20.18;82.85
41624;BME280;27319;50.306;18.926;2023-10-13T14:53:25;98060.06;;;20.13;82.80
41624;BME280;27319;50.306;18.926;2023-10-13T14:57:26;98056.44;;;20.01;83.82
41624;BME280;27319;50.306;18.926;2023-10-13T15:01:33;98063.91;;;19.94;83.36
41624;BME280;27319;50.306;18.926;2023-10-13T15:05:37;98054.19;;;19.98;84.53
41624;BME280;27319;50.306;18.926;2023-10-13T15:09:34;98049.06;;;19.90;84.32
41624;BME280;27319;50.306;18.926;2023-10-13T15:13:35;98041.34;;;19.87;84.45
41624;BME280;27319;50.306;18.926;2023-10-13T15:17:39;98040.19;;;19.94;84.05
41624;BME280;27319;50.306;18.926;2023-10-13T15:21:39;98037.75;;;19.75;85.93
41624;BME280;27319;50.306;18.926;2023-10-13T15:25:40;98025.25;;;19.56;86.39
41624;BME280;27319;50.306;18.926;2023-10-13T15:29:40;98020.69;;;19.38;87.98
41624;BME280;27319;50.306;18.926;2023-10-13T15:33:41;98023.75;;;19.42;87.67
41624;BME280;27319;50.306;18.926;2023-10-13T15:37:42;98020.97;;;19.30;88.31
41624;BME280;27319;50.306;18.926;2023-10-13T15:41:43;98016.00;;;19.27;88.82
41624;BME280;27319;50.306;18.926;2023-10-13T15:45:43;98011.94;;;19.12;89.44
41624;BME280;27319;50.306;18.926;2023-10-13T15:49:44;98021.63;;;19.08;90.87
41624;BME280;27319;50.306;18.926;2023-10-13T15:53:45;98016.19;;;18.90;91.41
41624;BME280;27319;50.306;18.926;2023-10-13T15:57:46;98018.28;;;18.88;91.37
41624;BME280;27319;50.306;18.926;2023-10-13T16:01:46;98009.06;;;18.71;92.26
41624;BME280;27319;50.306;18.926;2023-10-13T16:05:50;98006.66;;;18.63;92.67
41624;BME280;27319;50.306;18.926;2023-10-13T16:09:51;98010.69;;;18.54;93.51
41624;BME280;27319;50.306;18.926;2023-10-13T16:13:51;98011.41;;;18.43;93.64
41624;BME280;27319;50.306;18.926;2023-10-13T16:17:52;98005.09;;;18.24;95.10
41624;BME280;27319;50.306;18.926;2023-10-13T16:21:53;98006.63;;;18.14;95.45
41624;BME280;27319;50.306;18.926;2023-10-13T16:25:54;97998.34;;;18.09;95.90
41624;BME280;27319;50.306;18.926;2023-10-13T16:29:55;97991.72;;;17.98;96.58
41624;BME280;27319;50.306;18.926;2023-10-13T16:33:55;97986.00;;;17.82;97.77
41624;BME280;27319;50.306;18.926;2023-10-13T16:37:56;97982.00;;;17.84;97.58
41624;BME280;27319;50.306;18.926;2023-10-13T16:41:57;97982.00;;;17.84;97.05
41624;BME280;27319;50.306;18.926;2023-10-13T16:45:57;97976.50;;;17.66;98.78
41624;BME280;27319;50.306;18.926;2023-10-13T16:49:58;97973.56;;;17.68;98.38
41624;BME280;27319;50.306;18.926;2023-10-13T16:53:59;97966.06;;;17.63;98.09
41624;BME280;27319;50.306;18.926;2023-10-13T16:58:00;97967.63;;;17.53;98.78
41624;BME280;27319;50.306;18.926;2023-10-13T17:02:01;97968.00;;;17.56;98.59
41624;BME280;27319;50.306;18.926;2023-10-13T17:06:01;97966.59;;;17.47;99.20
41624;BME280;27319;50.306;18.926;2023-10-13T17:10:02;97950.75;;;17.44;99.34
41624;BME280;27319;50.306;18.926;2023-10-13T17:14:03;97950.38;;;17.28;100.00
41624;BME280;27319;50.306;18.926;2023-10-13T17:18:04;97945.22;;;17.20;100.00
41624;BME280;27319;50.306;18.926;2023-10-13T17:22:05;97942.59;;;17.07;100.00
41624;BME280;27319;50.306;18.926;2023-10-13T17:26:06;97942.41;;;17.02;100.00
41624;BME280;27319;50.306;18.926;2023-10-13T17:30:06;97926.38;;;16.94;100.00
41624;BME280;27319;50.306;18.926;2023-10-13T17:34:07;97933.81;;;17.05;100.00
41624;BME280;27319;50.306;18.926;2023-10-13T17:38:08;97930.94;;;17.00;100.00
41624;BME280;27319;50.306;18.926;2023-10-13T17:42:08;97925.09;;;16.96;100.00
41624;BME280;27319;50.306;18.926;2023-10-13T17:46:10;97916.16;;;16.96;100.00
41624;BME280;27319;50.306;18.926;2023-10-13T17:50:10;97916.81;;;16.91;100.00
41624;BME280;27319;50.306;18.926;2023-10-13T17:54:10;97922.19;;;16.98;100.00
41624;BME280;27319;50.306;18.926;2023-10-13T17:58:11;97920.53;;;16.97;100.00
41624;BME280;27319;50.306;18.926;2023-10-13T18:02:12;97918.03;;;16.95;100.00
41624;BME280;27319;50.306;18.926;2023-10-13T18:06:22;97908.03;;;16.96;100.00
41624;BME280;27319;50.306;18.926;2023-10-13T18:10:22;97907.84;;;16.91;100.00
41624;BME280;27319;50.306;18.926;2023-10-13T18:14:23;97904.69;;;16.94;100.00
41624;BME280;27319;50.306;18.926;2023-10-13T18:18:25;97909.34;;;16.80;100.00
41624;BME280;27319;50.306;18.926;2023-10-13T18:22:25;97910.56;;;16.84;100.00
41624;BME280;27319;50.306;18.926;2023-10-13T18:26:26;97903.69;;;16.82;100.00
41624;BME280;27319;50.306;18.926;2023-10-13T18:30:27;97904.38;;;16.71;100.00
41624;BME280;27319;50.306;18.926;2023-10-13T18:34:28;97902.28;;;16.73;100.00
41624;BME280;27319;50.306;18.926;2023-10-13T18:38:28;97898.13;;;16.70;100.00
41624;BME280;27319;50.306;18.926;2023-10-13T18:42:29;97895.44;;;16.64;100.00
41624;BME280;27319;50.306;18.926;2023-10-13T18:46:30;97895.69;;;16.56;100.00
41624;BME280;27319;50.306;18.926;2023-10-13T18:50:31;97888.16;;;16.58;100.00
41624;BME280;27319;50.306;18.926;2023-10-13T18:54:31;97879.03;;;16.52;100.00
41624;BME280;27319;50.306;18.926;2023-10-13T18:58:32;97880.41;;;16.68;100.00
41624;BME280;27319;50.306;18.926;2023-10-13T19:02:36;97881.09;;;16.57;100.00
41624;BME280;27319;50.306;18.926;2023-10-13T19:06:36;97876.28;;;16.59;100.00
41624;BME280;27319;50.306;18.926;2023-10-13T19:10:37;97874.66;;;16.51;100.00
41624;BME280;27319;50.306;18.926;2023-10-13T19:14:38;97870.94;;;16.33;100.00
41624;BME280;27319;50.306;18.926;2023-10-13T19:18:40;97874.47;;;16.40;100.00
41624;BME280;27319;50.306;18.926;2023-10-13T19:22:40;97871.56;;;16.41;100.00
41624;BME280;27319;50.306;18.926;2023-10-13T19:26:41;97875.47;;;16.52;100.00
41624;BME280;27319;50.306;18.926;2023-10-13T19:30:41;97881.34;;;16.49;100.00
41624;BME280;27319;50.306;18.926;2023-10-13T19:34:42;97873.16;;;16.55;100.00
41624;BME280;27319;50.306;18.926;2023-10-13T19:38:43;97870.09;;;16.39;100.00
41624;BME280;27319;50.306;18.926;2023-10-13T19:42:44;97861.56;;;16.42;100.00
41624;BME280;27319;50.306;18.926;2023-10-13T19:46:44;97869.47;;;16.43;100.00
41624;BME280;27319;50.306;18.926;2023-10-13T19:50:45;97867.00;;;16.42;100.00
41624;BME280;27319;50.306;18.926;2023-10-13T19:54:45;97860.31;;;16.31;100.00
41624;BME280;27319;50.306;18.926;2023-10-13T19:58:47;97867.38;;;16.32;100.00
41624;BME280;27319;50.306;18.926;2023-10-13T20:02:47;97867.41;;;16.19;100.00
41624;BME280;27319;50.306;18.926;2023-10-13T20:06:51;97862.00;;;16.13;100.00
41624;BME280;27319;50.306;18.926;2023-10-13T20:10:51;97858.28;;;16.14;100.00
41624;BME280;27319;50.306;18.926;2023-10-13T20:14:55;97848.31;;;16.08;100.00
41624;BME280;27319;50.306;18.926;2023-10-13T20:18:56;97848.50;;;16.06;100.00
41624;BME280;27319;50.306;18.926;2023-10-13T20:22:57;97848.50;;;16.06;100.00
41624;BME280;27319;50.306;18.926;2023-10-13T20:26:57;97841.66;;;15.97;100.00
41624;BME280;27319;50.306;18.926;2023-10-13T20:31:01;97837.47;;;15.95;100.00
41624;BME280;27319;50.306;18.926;2023-10-13T20:35:02;97838.31;;;16.02;100.00
41624;BME280;27319;50.306;18.926;2023-10-13T20:39:03;97823.75;;;15.96;100.00
41624;BME280;27319;50.306;18.926;2023-10-13T20:43:03;97821.25;;;15.95;100.00
41624;BME280;27319;50.306;18.926;2023-10-13T20:47:04;97816.28;;;15.85;100.00
41624;BME280;27319;50.306;18.926;2023-10-13T20:51:05;97817.72;;;15.88;100.00
41624;BME280;27319;50.306;18.926;2023-10-13T20:55:06;97818.97;;;15.85;100.00
41624;BME280;27319;50.306;18.926;2023-10-13T20:59:06;97807.34;;;15.78;100.00
41624;BME280;27319;50.306;18.926;2023-10-13T21:03:10;97807.13;;;15.73;100.00
41624;BME280;27319;50.306;18.926;2023-10-13T21:07:11;97806.31;;;15.73;100.00
41624;BME280;27319;50.306;18.926;2023-10-13T21:14:52;97798.78;;;15.81;100.00
41624;BME280;27319;50.306;18.926;2023-10-13T21:18:56;97800.47;;;15.76;100.00
41624;BME280;27319;50.306;18.926;2023-10-13T21:22:57;97791.09;;;15.72;100.00
41624;BME280;27319;50.306;18.926;2023-10-13T21:26:58;97797.97;;;15.74;100.00
41624;BME280;27319;50.306;18.926;2023-10-13T21:31:08;97795.72;;;15.71;100.00
41624;BME280;27319;50.306;18.926;2023-10-13T21:35:09;97787.78;;;15.63;100.00
41624;BME280;27319;50.306;18.926;2023-10-13T21:39:09;97790.91;;;15.67;100.00
41624;BME280;27319;50.306;18.926;2023-10-13T21:43:10;97781.38;;;15.58;100.00
41624;BME280;27319;50.306;18.926;2023-10-13T21:47:11;97771.59;;;15.50;100.00
41624;BME280;27319;50.306;18.926;2023-10-13T21:51:12;97775.13;;;15.51;100.00
41624;BME280;27319;50.306;18.926;2023-10-13T21:55:13;97776.34;;;15.55;100.00
41624;BME280;27319;50.306;18.926;2023-10-13T21:59:13;97755.56;;;15.49;100.00
41624;BME280;27319;50.306;18.926;2023-10-13T22:03:14;97763.91;;;15.41;100.00
41624;BME280;27319;50.306;18.926;2023-10-13T22:07:15;97756.84;;;15.40;100.00
41624;BME280;27319;50.306;18.926;2023-10-13T22:11:16;97742.50;;;15.33;100.00
41624;BME280;27319;50.306;18.926;2023-10-13T22:15:17;97740.16;;;15.30;100.00
41624;BME280;27319;50.306;18.926;2023-10-13T22:19:17;97727.72;;;15.16;100.00
41624;BME280;27319;50.306;18.926;2023-10-13T22:23:18;97723.34;;;15.08;100.00
41624;BME280;27319;50.306;18.926;2023-10-13T22:27:19;97720.44;;;15.10;100.00
41624;BME280;27319;50.306;18.926;2023-10-13T22:31:20;97715.66;;;15.12;100.00
41624;BME280;27319;50.306;18.926;2023-10-13T22:35:20;97712.34;;;15.10;100.00
41624;BME280;27319;50.306;18.926;2023-10-13T22:39:21;97700.69;;;15.03;100.00
41624;BME280;27319;50.306;18.926;2023-10-13T22:43:21;97702.13;;;15.12;100.00
41624;BME280;27319;50.306;18.926;2023-10-13T22:47:22;97700.69;;;15.09;100.00
41624;BME280;27319;50.306;18.926;2023-10-13T22:51:23;97697.97;;;15.03;100.00
41624;BME280;27319;50.306;18.926;2023-10-13T22:55:24;97692.56;;;15.03;100.00
41624;BME280;27319;50.306;18.926;2023-10-13T22:59:25;97697.56;;;14.80;100.00
41624;BME280;27319;50.306;18.926;2023-10-13T23:03:34;97687.59;;;14.61;100.00
41624;BME280;27319;50.306;18.926;2023-10-13T23:07:38;97689.25;;;14.75;100.00
41624;BME280;27319;50.306;18.926;2023-10-13T23:11:42;97668.28;;;14.77;100.00
41624;BME280;27319;50.306;18.926;2023-10-13T23:15:46;97672.84;;;14.83;100.00
41624;BME280;27319;50.306;18.926;2023-10-13T23:19:46;97669.72;;;14.86;100.00
41624;BME280;27319;50.306;18.926;2023-10-13T23:23:47;97662.66;;;14.78;100.00
41624;BME280;27319;50.306;18.926;2023-10-13T23:27:47;97661.44;;;14.81;100.00
41624;BME280;27319;50.306;18.926;2023-10-13T23:31:48;97661.19;;;14.82;100.00
41624;BME280;27319;50.306;18.926;2023-10-13T23:35:49;97647.69;;;14.89;100.00
41624;BME280;27319;50.306;18.926;2023-10-13T23:39:49;97648.72;;;15.01;100.00
41624;BME280;27319;50.306;18.926;2023-10-13T23:43:50;97645.81;;;14.96;100.00
41624;BME280;27319;50.306;18.926;2023-10-13T23:47:53;97637.50;;;14.91;100.00
41624;BME280;27319;50.306;18.926;2023-10-13T23:51:54;97639.16;;;14.92;100.00
41624;BME280;27319;50.306;18.926;2023-10-13T23:55:58;97632.72;;;14.93;100.00
41624;BME280;27319;50.306;18.926;2023-10-13T23:59:47;97633.75;;;15.05;100.00
